Latest Weather Observations for Dartmoor

IDV60801

Issued at 11:32 am EST Saturday 2 July 2016 (issued every 30 minutes, with the page automatically refreshed every 10 minutes)

About weather observations | Map of weather stations | Latest weather observations for VIC | Other Formats
Station Details ID: 090194 Name: DARTMOOR Lat: -37.92 Lon: 141.26 Height: 51.0 m
Data from the previous 72 hours. | See also: Recent months at Dartmoor
Date/Time
EST
Temp
°C
App
Temp
°C
Dew
Point
°C
Rel
Hum
%
Delta-T
°C
Wind Press
QNH
hPa
Press
MSL
hPa
Rain since
9am
mm
Dir  Spd
km/h
Gust
km/h
Spd
kts
Gust
kts
02/11:30am 13.2 11.6 10.2 82 1.5 WNW 9 15 5 8 1026.2 1026.3 0.0
02/11:00am 12.5 11.0 10.4 87 1.1 NW 9 17 5 9 1026.2 1026.3 0.0
02/10:30am 11.9 10.9 11.1 95 0.4 WNW 7 11 4 6 1026.3 1026.4 0.0
02/10:00am 10.7 9.4 9.9 95 0.4 NNW 7 11 4 6 1026.1 1026.2 0.0
02/09:30am 10.2 8.8 9.4 95 0.4 NNW 7 13 4 7 1025.9 1026.0 0.0
02/09:00am 9.7 8.2 9.1 96 0.3 NW 7 9 4 5 1025.6 1025.7 1.8
02/08:30am 9.7 8.2 9.1 96 0.3 NNW 7 9 4 5 1025.4 1025.5 1.6
02/08:00am 9.6 8.1 9.0 96 0.3 NW 7 11 4 6 1025.1 1025.2 1.4
02/07:30am 9.3 7.9 8.7 96 0.3 NNW 6 7 3 4 1024.7 1024.8 1.0
02/07:00am 9.8 7.9 9.0 95 0.4 WNW 9 15 5 8 1024.4 1024.5 1.0
02/06:30am 9.3 6.9 8.7 96 0.3 NNW 11 19 6 10 1024.0 1024.1 1.0
02/06:00am 9.1 7.1 8.5 96 0.3 NW 9 13 5 7 1023.7 1023.8 1.0
02/05:30am 8.8 7.1 8.2 96 0.3 NNW 7 11 4 6 1023.6 1023.7 1.0
02/05:00am 9.1 7.1 8.5 96 0.3 NNW 9 11 5 6 1023.5 1023.6 1.0
02/04:30am 9.8 8.3 9.2 96 0.3 NW 7 11 4 6 1023.6 1023.7 1.0
02/04:00am 9.6 7.7 9.0 96 0.3 NW 9 15 5 8 1023.6 1023.7 1.0
02/03:30am 9.5 7.6 8.9 96 0.3 NW 9 11 5 6 1023.4 1023.5 1.0
02/03:00am 9.3 7.7 8.7 96 0.3 NW 7 9 4 5 1023.6 1023.7 1.0
02/02:30am 9.8 8.3 9.2 96 0.3 NW 7 11 4 6 1023.6 1023.7 1.0
02/02:00am 9.4 7.8 8.8 96 0.3 NW 7 11 4 6 1023.3 1023.4 0.8
02/01:30am 10.3 8.6 9.7 96 0.3 NW 9 13 5 7 1023.3 1023.4 0.8
02/01:00am 10.1 8.3 9.5 96 0.3 NW 9 11 5 6 1023.4 1023.5 0.8
02/12:30am 10.6 8.9 10.0 96 0.3 WNW 9 15 5 8 1023.6 1023.7 0.8
02/12:00am 10.9 8.6 10.3 96 0.3 WNW 13 19 7 10 1023.6 1023.7 0.8
 
Date/Time
EST
Temp
°C
App
Temp
°C
Dew
Point
°C
Rel
Hum
%
Delta-T
°C
Wind Press
QNH
hPa
Press
MSL
hPa
Rain since
9am
mm
Dir  Spd
km/h
Gust
km/h
Spd
kts
Gust
kts
01/11:30pm 10.2 8.4 9.6 96 0.3 NNW 9 13 5 7 1023.4 1023.5 0.8
01/11:00pm 10.8 8.8 10.2 96 0.3 NNW 11 15 6 8 1023.4 1023.5 0.8
01/10:30pm 10.7 9.4 10.1 96 0.3 NNW 7 11 4 6 1023.3 1023.4 0.8
01/10:00pm 10.9 9.3 10.3 96 0.3 WNW 9 15 5 8 1023.4 1023.5 0.8
01/09:30pm 10.9 9.7 10.3 96 0.3 WNW 7 13 4 7 1023.1 1023.2 0.6
01/09:00pm 11.1 8.8 10.5 96 0.3 NW 13 19 7 10 1023.1 1023.2 0.6
01/08:30pm 10.8 9.1 10.0 95 0.4 NW 9 13 5 7 1023.0 1023.1 0.6
01/08:00pm 11.0 9.0 10.2 95 0.4 NNW 11 17 6 9 1022.9 1023.0 0.6
01/07:30pm 11.1 9.1 10.3 95 0.4 NNW 11 15 6 8 1022.7 1022.8 0.4
01/07:00pm 11.3 9.4 10.5 95 0.4 WNW 11 15 6 8 1022.7 1022.8 0.4
01/06:30pm 11.3 9.3 10.2 93 0.6 NW 11 19 6 10 1022.3 1022.4 0.4
01/06:00pm 11.6 10.3 10.0 90 0.8 WNW 7 11 4 6 1022.1 1022.2 0.2
01/05:30pm 11.8 9.7 9.7 87 1.1 WNW 11 15 6 8 1021.8 1021.9 0.2
01/05:00pm 11.9 10.1 9.6 86 1.2 NW 9 13 5 7 1021.5 1021.6 0.2
01/04:30pm 12.1 10.4 9.7 85 1.2 NW 9 15 5 8 1021.3 1021.4 0.2
01/04:00pm 12.5 10.1 10.2 86 1.2 NW 13 17 7 9 1021.4 1021.5 0.2
01/03:30pm 12.0 9.2 10.1 88 1.0 WNW 15 32 8 17 1021.4 1021.5 0.2
01/03:00pm 12.9 10.3 9.4 79 1.8 WNW 13 20 7 11 1021.2 1021.3 0.0
01/02:30pm 13.1 11.0 9.9 81 1.6 WNW 11 17 6 9 1021.2 1021.3 0.0
01/02:00pm 12.6 9.2 9.2 80 1.7 W 17 28 9 15 1021.3 1021.4 0.0
01/01:30pm 12.4 9.5 9.6 83 1.4 WNW 15 24 8 13 1021.3 1021.4 0.0
01/01:00pm 12.4 10.0 10.0 85 1.2 NW 13 20 7 11 1021.4 1021.5 0.0
01/12:30pm 11.9 9.0 9.8 87 1.1 NW 15 20 8 11 1021.8 1021.9 0.0
01/12:00pm 11.5 8.1 9.1 85 1.2 NW 17 24 9 13 1021.9 1022.0 0.0
01/11:30am 11.1 7.5 8.3 83 1.4 WNW 17 24 9 13 1022.3 1022.4 0.0
01/11:00am 11.6 9.6 8.6 82 1.5 WNW 9 15 5 8 1022.3 1022.4 0.0
01/10:30am 10.7 8.5 7.9 83 1.4 WNW 9 13 5 7 1022.2 1022.3 0.0
01/10:00am 9.8 7.9 7.6 86 1.0 WNW 7 11 4 6 1021.9 1022.0 0.0
01/09:30am 9.1 6.6 6.7 85 1.1 WNW 9 15 5 8 1021.6 1021.7 0.0
01/09:00am 8.4 5.8 6.0 85 1.1 NW 9 13 5 7 1021.3 1021.4 17.2
01/08:30am 8.0 5.3 5.8 86 1.0 NW 9 17 5 9 1021.0 1021.1 17.2
01/08:00am 8.0 5.3 5.6 85 1.1 WNW 9 13 5 7 1020.7 1020.8 17.2
01/07:30am 7.2 4.7 5.0 86 1.0 NW 7 9 4 5 1020.2 1020.3 17.2
01/07:00am 7.3 4.1 5.1 86 1.0 NW 11 13 6 7 1019.9 1020.0 17.2
01/06:30am 7.6 4.4 5.1 84 1.1 NW 11 13 6 7 1019.4 1019.5 17.2
01/06:00am 7.1 3.9 4.9 86 1.0 NW 11 13 6 7 1019.0 1019.1 17.2
01/05:30am 7.8 4.9 4.7 81 1.4 WNW 9 9 5 5 1018.8 1018.9 17.2
01/05:00am 7.9 5.3 4.1 77 1.6 WNW 7 9 4 5 1018.4 1018.5 17.2
01/04:30am 8.9 5.8 3.7 70 2.3 WSW 9 13 5 7 1017.8 1017.9 17.2
01/04:00am 9.3 6.6 5.7 78 1.6 W 9 13 5 7 1017.7 1017.8 17.2
01/03:30am 9.4 7.1 5.9 79 1.6 W 7 11 4 6 1017.5 1017.6 17.2
01/03:00am 9.5 6.9 6.0 79 1.6 WSW 9 17 5 9 1017.1 1017.2 17.2
01/02:30am 9.5 6.7 6.8 83 1.3 WSW 11 17 6 9 1016.8 1016.9 17.2
01/02:00am 9.4 6.4 7.5 88 0.9 SW 13 24 7 13 1016.3 1016.4 17.2
01/01:30am 9.4 7.2 7.7 89 0.8 WSW 9 17 5 9 1015.9 1016.0 17.2
01/01:00am 9.4 6.4 7.7 89 0.8 WSW 13 22 7 12 1015.5 1015.6 17.0
01/12:30am 9.4 5.5 7.3 87 1.0 WSW 17 28 9 15 1015.0 1015.1 17.0
01/12:00am 9.8 6.5 8.2 90 0.8 WSW 15 28 8 15 1014.4 1014.5 17.0
 
Date/Time
EST
Temp
°C
App
Temp
°C
Dew
Point
°C
Rel
Hum
%
Delta-T
°C
Wind Press
QNH
hPa
Press
MSL
hPa
Rain since
9am
mm
Dir  Spd
km/h
Gust
km/h
Spd
kts
Gust
kts
30/11:30pm 9.9 6.7 8.5 91 0.7 WSW 15 24 8 13 1014.0 1014.1 17.0
30/11:00pm 9.9 5.4 8.7 92 0.6 SW 22 41 12 22 1013.4 1013.4 16.8
30/10:30pm 9.8 5.7 8.6 92 0.6 SW 20 35 11 19 1012.7 1012.7 16.2
30/10:00pm 10.2 6.4 9.0 92 0.6 SW 19 30 10 16 1012.1 1012.1 15.8
30/09:30pm 10.3 5.9 8.9 91 0.7 SW 22 33 12 18 1011.3 1011.3 15.4
30/09:00pm 10.2 4.7 9.1 93 0.5 SW 28 44 15 24 1010.6 1010.6 15.0
30/08:30pm 10.1 5.6 8.5 90 0.8 WSW 22 37 12 20 1009.8 1009.8 13.2
30/08:00pm 9.9 5.1 9.0 94 0.4 WSW 24 35 13 19 1009.1 1009.1 13.2
30/07:30pm 9.9 5.5 9.0 94 0.4 WSW 22 39 12 21 1008.3 1008.3 9.8
30/07:00pm 9.6 3.2 8.4 92 0.6 W 32 52 17 28 1007.5 1007.6 5.4
30/06:30pm 9.1 3.2 7.7 91 0.7 W 28 54 15 29 1006.5 1006.6 5.0
30/06:22pm 9.0 2.7 7.6 91 0.7 W 30 48 16 26 1006.5 1006.6 4.8
30/06:00pm 9.0 3.0 7.0 87 0.9 WNW 28 46 15 25 1006.3 1006.4 4.4
30/05:30pm 8.7 3.7 6.5 86 1.0 WNW 22 35 12 19 1006.2 1006.3 4.0
30/05:00pm 9.3 4.8 5.9 79 1.6 WNW 19 30 10 16 1005.9 1006.0 3.4
30/04:30pm 8.6 3.9 6.2 85 1.1 NW 20 39 11 21 1006.3 1006.4 3.4
30/04:00pm 9.1 4.7 6.5 84 1.2 WNW 19 30 10 16 1006.2 1006.3 3.4
30/03:30pm 9.4 5.2 5.6 77 1.7 NW 17 35 9 19 1005.7 1005.8 3.0
30/03:00pm 9.2 3.9 6.6 84 1.2 WNW 24 35 13 19 1005.5 1005.6 3.0
30/02:30pm 9.4 4.3 6.1 80 1.5 WNW 22 37 12 20 1005.3 1005.4 3.0
30/02:00pm 9.9 5.1 7.2 83 1.3 WNW 22 33 12 18 1005.2 1005.3 2.8
30/01:30pm 9.5 4.1 6.4 81 1.4 NW 24 41 13 22 1005.2 1005.3 2.6
30/01:00pm 8.6 4.0 6.6 87 0.9 WNW 20 33 11 18 1005.4 1005.5 2.6
30/12:30pm 9.0 5.1 7.3 89 0.8 WNW 17 30 9 16 1005.3 1005.4 2.6
30/12:00pm 9.1 5.0 7.7 91 0.7 WNW 19 30 10 16 1005.9 1006.0 2.4
30/11:30am 8.9 5.1 7.7 92 0.6 WNW 17 30 9 16 1005.8 1005.9 2.2
30/11:00am 9.8 3.8 8.7 93 0.5 NW 30 43 16 23 1005.7 1005.8 1.8
30/10:45am 10.1 4.6 9.0 93 0.5 NNW 28 48 15 26 1005.3 1005.4 0.6
30/10:30am 9.9 6.0 8.8 93 0.5 N 19 35 10 19 1005.0 1005.1 0.2
30/10:00am 9.5 5.4 8.7 95 0.4 N 20 26 11 14 1005.3 1005.4 0.2
30/09:30am 8.9 4.9 8.1 95 0.4 N 19 26 10 14 1005.5 1005.6 0.2
30/09:00am 8.6 4.9 7.8 95 0.4 NNE 17 24 9 13 1005.6 1005.7 7.2
30/08:30am 8.7 4.6 7.8 94 0.4 N 19 32 10 17 1005.8 1005.9 6.4
30/08:00am 8.5 2.6 7.7 95 0.4 N 28 41 15 22 1006.0 1006.1 5.4
30/07:30am 8.6 4.2 7.5 93 0.5 N 20 33 11 18 1006.7 1006.8 4.8
30/07:00am 8.7 3.6 7.6 93 0.5 N 24 37 13 20 1007.2 1007.3 2.6
30/06:30am 9.0 3.5 7.5 90 0.7 NNW 26 41 14 22 1007.3 1007.4 2.0
30/06:00am 9.2 3.6 7.0 86 1.0 N 26 37 14 20 1006.8 1006.9 1.6
30/05:30am 8.9 4.1 7.4 90 0.7 N 22 37 12 20 1006.7 1006.8 1.6
30/05:00am 9.2 3.2 7.0 86 1.0 N 28 44 15 24 1006.9 1007.0 1.4
30/04:30am 9.2 4.3 6.8 85 1.1 N 22 35 12 19 1007.7 1007.8 1.4
30/04:00am 9.4 3.7 6.5 82 1.4 N 26 43 14 23 1008.4 1008.4 1.2
30/03:30am 9.1 4.5 6.5 84 1.2 N 20 32 11 17 1008.7 1008.7 1.2
30/03:00am 9.2 4.6 6.6 84 1.2 N 20 32 11 17 1009.5 1009.5 0.8
30/02:30am 10.3 5.1 5.7 73 2.1 N 22 37 12 20 1010.1 1010.1 0.0
30/02:00am 10.9 4.4 4.8 66 2.8 N 28 43 15 23 1010.0 1010.0 0.0
30/01:30am 10.7 5.0 4.8 67 2.7 N 24 37 13 20 1010.6 1010.6 0.0
30/01:00am 10.6 4.9 4.7 67 2.7 N 24 37 13 20 1010.9 1010.9 0.0
30/12:30am 10.8 4.7 4.9 67 2.7 N 26 43 14 23 1011.7 1011.7 0.0
30/12:00am 11.0 5.3 4.9 66 2.8 N 24 41 13 22 1012.3 1012.3 0.0
 
Date/Time
EST
Temp
°C
App
Temp
°C
Dew
Point
°C
Rel
Hum
%
Delta-T
°C
Wind Press
QNH
hPa
Press
MSL
hPa
Rain since
9am
mm
Dir  Spd
km/h
Gust
km/h
Spd
kts
Gust
kts
29/11:30pm 11.1 5.0 4.8 65 2.9 N 26 43 14 23 1012.7 1012.7 0.0
29/11:00pm 11.2 5.5 4.9 65 2.9 N 24 33 13 18 1013.0 1013.0 0.0
29/10:30pm 11.4 5.7 5.1 65 2.9 N 24 33 13 18 1013.4 1013.4 0.0
29/10:00pm 11.3 6.6 5.0 65 2.9 N 19 30 10 16 1014.1 1014.2 0.0
29/09:30pm 11.3 6.3 4.7 64 3.0 N 20 37 11 20 1014.6 1014.7 0.0
29/09:00pm 11.6 6.1 4.1 60 3.4 N 22 35 12 19 1015.0 1015.1 0.0
29/08:30pm 12.0 6.0 3.5 56 3.8 N 24 41 13 22 1015.4 1015.5 0.0
29/08:01pm 11.9 5.2 3.7 57 3.7 N 28 46 15 25 1015.9 1016.0 0.0
29/08:00pm 11.8 5.1 3.6 57 3.6 N 28 43 15 23 1015.9 1016.0 0.0
29/07:42pm 11.9 5.2 3.7 57 3.7 N 28 48 15 26 1016.1 1016.2 0.0
29/07:30pm 11.8 5.5 3.8 58 3.6 N 26 43 14 23 1016.1 1016.2 0.0
29/07:00pm 11.7 5.9 4.4 61 3.3 N 24 37 13 20 1016.1 1016.2 0.0
29/06:30pm 11.6 6.8 4.6 62 3.2 N 19 30 10 16 1016.4 1016.5 0.0
29/06:00pm 11.7 6.7 4.7 62 3.2 N 20 33 11 18 1016.4 1016.5 0.0
29/05:30pm 11.7 7.4 5.3 65 3.0 N 17 24 9 13 1016.6 1016.7 0.0
29/05:00pm 11.9 7.1 4.9 62 3.2 N 19 32 10 17 1016.8 1016.9 0.0
29/04:30pm 12.1 7.5 5.7 65 3.0 N 19 28 10 15 1017.2 1017.3 0.0
29/04:00pm 12.7 7.5 5.4 61 3.4 N 22 33 12 18 1017.5 1017.6 0.0
29/03:30pm 12.7 7.9 5.6 62 3.3 N 20 37 11 20 1017.9 1018.0 0.0
29/03:00pm 13.0 7.9 5.9 62 3.3 N 22 35 12 19 1018.3 1018.4 0.0
29/02:30pm 13.1 7.5 5.3 59 3.6 N 24 43 13 23 1018.7 1018.8 0.0
29/02:13pm 13.4 7.0 5.3 58 3.8 NNW 28 46 15 25 1018.9 1019.0 0.0
29/02:00pm 13.6 8.2 6.2 61 3.5 N 24 39 13 21 1019.0 1019.1 0.0
29/01:30pm 13.8 9.5 7.1 64 3.3 N 19 35 10 19 1019.7 1019.8 0.0
29/01:00pm 13.3 9.5 7.7 69 2.7 N 17 26 9 14 1020.5 1020.6 0.0
29/12:30pm 13.3 8.9 7.3 67 2.9 NNW 20 37 11 20 1021.1 1021.2 0.0
29/12:00pm 13.6 10.1 8.7 72 2.5 N 17 26 9 14 1022.1 1022.2 0.0

Other Formats:

Comma delimited format used in spreadsheet applications
http://www.bom.gov.au/fwo/IDV60801/IDV60801.95822.axf

JavaScript Object Notation format (JSON) in row-major order
http://www.bom.gov.au/fwo/IDV60801/IDV60801.95822.json